createdAt,value
2017-08-14T04:16:15.341Z,7.93
2017-08-14T04:18:43.069Z,6.40
2017-08-14T04:21:10.713Z,6.57
2017-08-14T04:23:38.225Z,7.70
2017-08-14T04:26:06.072Z,7.50
2017-08-14T04:28:34.801Z,6.60
2017-08-14T04:31:03.316Z,7.03
2017-08-14T04:33:30.949Z,7.90
2017-08-14T04:35:59.476Z,8.38
2017-08-14T04:38:28.057Z,7.30
2017-08-14T04:40:55.761Z,6.68
2017-08-14T04:43:23.574Z,9.00
2017-08-14T04:45:51.346Z,8.98
2017-08-14T04:48:19.108Z,7.18
2017-08-14T04:50:46.612Z,10.90
2017-08-14T04:53:15.354Z,7.97
2017-08-14T04:55:46.388Z,8.70
2017-08-14T04:58:14.152Z,8.30
2017-08-14T05:00:42.031Z,8.15
2017-08-14T05:03:09.782Z,9.27
2017-08-14T05:05:37.481Z,7.20
2017-08-14T05:08:05.104Z,7.93
2017-08-14T05:10:32.703Z,7.20
2017-08-14T05:13:01.286Z,6.28
2017-08-14T05:15:30.400Z,7.75
2017-08-14T05:17:58.289Z,5.18
2017-08-14T05:20:27.097Z,6.97
2017-08-14T05:22:55.102Z,6.35
2017-08-14T05:25:24.138Z,4.30
2017-08-14T05:27:51.633Z,4.53
2017-08-14T05:30:19.403Z,7.37
2017-08-14T05:32:47.206Z,7.70
2017-08-14T05:35:15.172Z,4.00
2017-08-14T05:37:43.367Z,4.47
2017-08-14T05:40:10.889Z,4.07
2017-08-14T05:42:38.389Z,4.13
2017-08-14T05:45:05.885Z,4.00
2017-08-14T05:47:34.418Z,5.10
2017-08-14T05:50:01.921Z,3.60
2017-08-14T05:52:30.459Z,3.40
2017-08-14T05:54:57.956Z,3.40
2017-08-14T05:57:25.777Z,4.73
2017-08-14T05:59:53.803Z,6.20
2017-08-14T06:02:21.902Z,3.97
2017-08-14T06:04:49.732Z,3.87
2017-08-14T06:07:18.250Z,3.33
2017-08-14T06:09:46.656Z,4.37
2017-08-14T06:12:14.553Z,3.60
2017-08-14T06:14:42.633Z,4.80
2017-08-14T06:17:10.313Z,4.20
2017-08-14T06:19:38.016Z,3.00
2017-08-14T06:22:06.018Z,3.53
2017-08-14T06:24:34.114Z,3.20
2017-08-14T06:27:02.003Z,3.20
2017-08-14T06:29:29.700Z,3.57
2017-08-14T06:31:57.702Z,3.20
2017-08-14T06:34:26.208Z,3.63
2017-08-14T06:36:53.712Z,3.60
2017-08-14T06:39:21.273Z,4.13
2017-08-14T06:41:52.482Z,3.90
2017-08-14T06:44:20.502Z,3.73
2017-08-14T06:46:49.020Z,3.83
2017-08-14T06:49:16.620Z,4.33
2017-08-14T06:51:45.160Z,5.27
2017-08-14T06:54:13.102Z,4.80
2017-08-14T06:56:40.640Z,5.20
2017-08-14T06:59:08.448Z,5.33
2017-08-14T07:01:38.796Z,5.00
2017-08-14T07:04:07.467Z,5.17
2017-08-14T07:06:35.227Z,4.20
2017-08-14T07:09:02.881Z,4.30
2017-08-14T07:11:30.424Z,4.03
2017-08-14T07:13:58.081Z,5.73
2017-08-14T07:16:25.693Z,4.00
2017-08-14T07:18:53.998Z,4.97
2017-08-14T07:21:22.508Z,3.70
2017-08-14T07:23:50.132Z,3.60
2017-08-14T07:26:17.757Z,3.57
2017-08-14T07:28:45.375Z,3.07
2017-08-14T07:31:13.301Z,3.30
2017-08-14T07:33:42.288Z,2.60
2017-08-14T07:36:10.916Z,2.93
2017-08-14T07:38:38.517Z,2.70
2017-08-14T07:41:06.132Z,2.80
2017-08-14T07:43:34.568Z,3.17
2017-08-14T07:46:02.168Z,2.57
2017-08-14T07:48:30.073Z,3.33
2017-08-14T07:50:58.825Z,3.43
2017-08-14T07:53:27.321Z,3.33
2017-08-14T07:55:54.882Z,4.03
2017-08-14T07:58:22.624Z,2.90
2017-08-14T08:00:50.954Z,4.13
2017-08-14T08:03:19.229Z,2.80
2017-08-14T08:05:46.742Z,3.50
2017-08-14T08:08:14.521Z,2.90
2017-08-14T08:10:42.249Z,3.00
2017-08-14T08:13:10.188Z,3.40
2017-08-14T08:15:38.295Z,3.03
2017-08-14T08:18:06.105Z,3.77
2017-08-14T08:20:33.962Z,2.80
2017-08-14T08:23:01.785Z,3.30
2017-08-14T08:25:29.300Z,5.10
2017-08-14T08:27:57.684Z,4.93
2017-08-14T08:30:25.618Z,3.07
2017-08-14T08:32:53.171Z,2.77
2017-08-14T08:35:20.816Z,2.80
2017-08-14T08:37:48.926Z,3.27
2017-08-14T08:40:17.408Z,3.23
2017-08-14T08:42:45.306Z,2.83
2017-08-14T08:45:13.184Z,2.90
2017-08-14T08:47:40.709Z,2.77
2017-08-14T08:50:08.604Z,3.00
2017-08-14T08:52:36.337Z,2.50
2017-08-14T08:55:04.191Z,2.70
2017-08-14T08:57:32.457Z,2.87
2017-08-14T09:00:00.001Z,3.00
2017-08-14T09:02:28.273Z,3.27
2017-08-14T09:04:55.866Z,3.03
2017-08-14T09:07:23.506Z,3.90
2017-08-14T09:09:51.804Z,3.10
2017-08-14T09:12:19.420Z,2.90
2017-08-14T09:14:47.022Z,3.20
2017-08-14T09:17:15.025Z,2.70
2017-08-14T09:19:44.387Z,3.10
2017-08-14T16:54:35.732Z,3.92
2017-08-14T16:57:04.108Z,2.90
2017-08-14T16:59:32.343Z,3.72
2017-08-14T17:02:00.641Z,3.67
2017-08-14T17:04:29.225Z,4.40
2017-08-14T17:06:56.904Z,3.70
2017-08-14T17:09:24.669Z,3.87
2017-08-14T17:11:52.241Z,4.60
2017-08-14T17:14:21.606Z,3.83
2017-08-14T17:16:50.846Z,3.58
2017-08-14T17:19:19.106Z,3.80
2017-08-14T17:21:46.940Z,4.05
2017-08-14T17:24:14.452Z,4.55
2017-08-14T17:26:41.953Z,4.18
2017-08-14T17:29:09.473Z,5.22
2017-08-14T17:31:38.571Z,3.58
2017-08-14T17:34:06.605Z,3.75
2017-08-14T17:36:34.537Z,3.80
2017-08-14T17:39:02.032Z,4.18
2017-08-14T17:41:29.553Z,3.70
2017-08-14T17:43:57.059Z,4.12
2017-08-14T17:46:24.893Z,3.58
2017-08-14T17:48:52.652Z,5.60
2017-08-14T17:51:21.546Z,3.70
2017-08-14T17:53:49.305Z,4.12
2017-08-14T17:56:17.475Z,4.37
2017-08-14T17:58:45.237Z,4.15
2017-08-14T18:01:12.732Z,4.78
2017-08-14T18:03:40.492Z,4.15
2017-08-14T18:06:08.545Z,5.22
2017-08-14T18:08:36.133Z,4.55
2017-08-14T18:11:04.447Z,3.97
2017-08-14T18:13:31.961Z,4.72
2017-08-14T18:16:00.808Z,6.60
2017-08-14T18:18:28.416Z,4.00
2017-08-14T18:20:55.921Z,4.40
2017-08-14T18:23:23.461Z,7.35
2017-08-14T18:25:50.960Z,4.65
2017-08-14T18:28:18.457Z,4.25
2017-08-14T18:30:47.058Z,8.13
2017-08-14T18:33:14.561Z,5.05
2017-08-14T18:35:42.232Z,5.37
2017-08-14T18:38:10.506Z,5.03
2017-08-14T18:40:38.797Z,6.18
2017-08-14T18:43:06.604Z,5.53
2017-08-14T18:45:34.607Z,6.15
2017-08-14T18:48:03.130Z,6.95
2017-08-14T18:50:31.229Z,8.25
2017-08-14T18:53:02.225Z,7.93
2017-08-14T18:55:30.426Z,6.78
2017-08-14T18:57:58.901Z,7.20
2017-08-14T19:00:26.827Z,7.20
2017-08-14T19:02:55.038Z,6.75
2017-08-14T19:05:24.129Z,6.80
2017-08-14T19:07:53.768Z,8.30
2017-08-14T19:10:21.820Z,7.32
2017-08-14T19:12:50.304Z,9.05
2017-08-14T19:15:18.847Z,6.55
2017-08-14T19:17:47.516Z,6.75
2017-08-14T19:20:17.927Z,6.90
2017-08-14T19:22:46.177Z,7.35
2017-08-14T19:25:14.226Z,8.45
2017-08-14T19:27:42.874Z,7.78
2017-08-14T19:30:11.044Z,7.78
2017-08-14T19:32:39.586Z,8.13
2017-08-14T19:35:07.387Z,8.57
2017-08-14T19:37:34.934Z,7.78
2017-08-14T19:40:05.544Z,7.80
2017-08-14T19:42:34.861Z,8.65
2017-08-14T19:45:02.867Z,8.18
2017-08-14T19:47:31.146Z,8.00
2017-08-14T19:49:59.739Z,9.95
2017-08-14T19:52:29.219Z,8.90
2017-08-14T19:54:57.627Z,8.02
2017-08-14T19:57:26.443Z,7.35
2017-08-14T19:59:55.173Z,8.15
2017-08-14T20:02:23.129Z,7.47
2017-08-14T20:04:51.630Z,6.70
2017-08-14T20:07:21.048Z,6.03
2017-08-14T20:09:50.981Z,7.80
2017-08-14T20:12:20.903Z,5.85
2017-08-14T20:14:51.644Z,5.80
2017-08-14T20:17:26.527Z,7.62
2017-08-14T20:19:56.728Z,7.25
2017-08-14T20:22:27.402Z,5.85
2017-08-14T20:24:56.032Z,4.78
2017-08-14T20:27:28.501Z,5.55
2017-08-14T20:29:59.189Z,5.85
